• Join FlightAware (Why Join?)
  • Login
  • US Flag 
05:21AM EDT


 

Airport Tracker/Info


-or-


 

Live Flight TrackerFlight Track Log ✈ USC105 ✈ 06-May-2013 ✈ KYIP - KDPA

Flight Track Log - Related Links

Times and Time Zones

All times are in EDT time to prevent confusion due to time zone crossing. See the USC105 flight status page for this flight to view local times or setup timezone preferences in your user account.

Time Position Orientation Groundspeed Altitude Reporting Facility
EDT Latitude Longitude Course Direction KTS MPH feet Rate Location/Type
12:25AM 42.2169 -83.5719 246° West 125 144 1,800  Level Cleveland Center
12:26AM 42.2136 -83.6278 265° West 141 162 2,900 1,080 Climbing Cleveland Center
12:27AM 42.2142 -83.6783 271° West 144 166 4,000 1,020 Climbing Cleveland Center
12:28AM 42.2128 -83.7344 268° West 147 169 5,000 960 Climbing Cleveland Center
12:29AM 42.2089 -83.7931 265° West 147 169 6,000 900 Climbing Cleveland Center
12:31AM 42.2022 -83.8858 264° West 147 169 7,700 660 Climbing Chicago Center
12:32AM 42.2019 -83.9433 270° West 151 174 8,000 120 Climbing Chicago Center
12:33AM 42.1989 -84.0200 267° West 185 213 8,000  Level Chicago Center
12:34AM 42.1958 -84.0928 267° West 196 226 8,000  Level Chicago Center
12:35AM 42.1939 -84.1672 268° West 198 228 8,000  Level Chicago Center
12:36AM 42.1903 -84.2417 266° West 200 230 8,000  Level Chicago Center
12:37AM 42.1864 -84.3167 266° West 200 230 8,000  Level Chicago Center
12:38AM 42.1814 -84.3903 265° West 199 229 8,000  Level Chicago Center
12:39AM 42.1778 -84.4644 266° West 199 229 8,000  Level Chicago Center
12:40AM 42.1750 -84.5358 267° West 200 230 8,000  Level Chicago Center
12:41AM 42.1706 -84.6094 265° West 199 229 8,000  Level Chicago Center
12:42AM 42.1664 -84.6822 266° West 196 226 8,000  Level Chicago Center
12:43AM 42.1631 -84.7564 267° West 199 229 8,000  Level Chicago Center
12:44AM 42.1586 -84.8289 265° West 197 227 8,000  Level Chicago Center
12:45AM 42.1539 -84.9019 265° West 197 227 8,000  Level Chicago Center
12:46AM 42.1489 -84.9914 266° West 199 229 8,000  Level Chicago Center
12:47AM 42.1450 -85.0650 266° West 199 229 8,000  Level Chicago Center
12:48AM 42.1397 -85.1375 264° West 197 227 8,000  Level Chicago Center
12:49AM 42.1353 -85.2122 265° West 199 229 8,000  Level Chicago Center
12:50AM 42.1314 -85.2856 266° West 199 229 8,000  Level Chicago Center
12:51AM 42.1269 -85.3600 265° West 200 230 8,000  Level Chicago Center
12:52AM 42.1214 -85.4350 264° West 202 232 8,000  Level Chicago Center
12:53AM 42.1169 -85.5094 265° West 201 231 8,000  Level Chicago Center
12:54AM 42.1117 -85.5844 265° West 201 231 8,000  Level Chicago Center
12:55AM 42.1075 -85.6594 266° West 203 234 8,000  Level Chicago Center
12:56AM 42.1025 -85.7347 265° West 203 234 8,000  Level Chicago Center
12:57AM 42.0975 -85.8094 265° West 202 232 8,000  Level Chicago Center
12:58AM 42.0931 -85.8850 265° West 204 235 8,000  Level Chicago Center
12:59AM 42.0878 -85.9594 265° West 201 231 8,000  Level Chicago Center
01:00AM 42.0817 -86.0364 264° West 205 236 8,000  Level Chicago Center
01:01AM 42.0764 -86.1128 265° West 207 238 8,000  Level Chicago Center
01:02AM 42.0717 -86.1883 265° West 205 236 8,000  Level Chicago Center
01:03AM 42.0656 -86.2633 264° West 203 234 8,000  Level Chicago Center
01:04AM 42.0611 -86.3394 266° West 204 235 8,000  Level Chicago Center
01:05AM 42.0547 -86.4156 264° West 206 237 8,000  Level Chicago Center
01:06AM 42.0497 -86.4914 265° West 204 235 8,000  Level Chicago Center
01:07AM 42.0436 -86.5678 264° West 205 236 8,000  Level Chicago Center
01:08AM 42.0386 -86.6419 265° West 201 231 8,000  Level Chicago Center
01:09AM 42.0344 -86.7200 266° West 201 231 8,000  Level Chicago Center
01:10AM 42.0289 -86.7944 264° West 201 231 8,000  Level Chicago Center
01:11AM 42.0222 -86.8683 263° West 200 230 8,000  Level Chicago Center
01:12AM 42.0169 -86.9447 265° West 206 237 8,000  Level Chicago Center
01:13AM 42.0119 -87.0200 265° West 205 236 8,000  Level Chicago Center
01:14AM 42.0056 -87.0950 263° West 204 235 8,000  Level Chicago Center
01:15AM 41.9994 -87.1694 264° West 203 234 8,000  Level Chicago Center
01:16AM 41.9942 -87.2428 264° West 201 231 8,000  Level Chicago Center
01:17AM 41.9878 -87.3169 263° West 201 231 8,000  Level Chicago Center
01:18AM 41.9828 -87.3914 265° West 202 232 8,000  Level Chicago Center
01:19AM 41.9744 -87.4789 263° West 201 231 8,000  Level Chicago Center
01:20AM 41.9694 -87.5511 265° West 197 227 8,000  Level Chicago Center
01:21AM 41.9667 -87.6167 267° West 195 224 8,000 -120 Level Chicago TRACON
01:22AM 41.9500 -87.7000 255° West 196 226 7,800 -600 Descending Chicago TRACON
01:23AM 41.9500 -87.7667 270° West 217 250 6,800 -900 Descending Chicago TRACON
01:24AM 41.9500 -87.8500 270° West 212 244 6,000 -660 Descending Chicago TRACON
01:25AM 41.9333 -87.9333 255° West 213 245 5,500 -840 Descending Chicago TRACON
01:26AM 41.9333 -88.0000 270° West 208 239 4,400 -720 Descending Chicago TRACON
01:27AM 41.9167 -88.0833 255° West 185 213 4,000 -600 Descending Chicago TRACON
01:28AM 41.9111 -88.1375 262° West 188 216 3,300 -900 Descending Chicago Center
01:29AM 41.8875 -88.1994 243° Southwest 206 237 2,300 -780 Descending Chicago Center
01:30AM 41.8572 -88.2439 228° Southwest 193 222 1,800 -720 Descending Chicago Center
01:31AM 41.8894 -88.2564 344° North 152 175 900 -900 Descending Chicago Center
01:33AM 41.9000 -88.2333 37° Northeast  Level FlightAware Approximate